createdAt,value
2022-07-30T00:01:18.329Z,10.43
2022-07-30T00:03:46.398Z,10.32
2022-07-30T00:06:15.619Z,15.38
2022-07-30T00:08:43.543Z,12.48
2022-07-30T00:11:12.035Z,15.57
2022-07-30T00:13:39.896Z,13.90
2022-07-30T00:16:08.096Z,11.73
2022-07-30T00:18:36.004Z,12.55
2022-07-30T00:21:05.027Z,11.52
2022-07-30T00:23:34.953Z,15.15
2022-07-30T00:26:03.221Z,12.23
2022-07-30T00:28:31.139Z,17.27
2022-07-30T00:30:59.001Z,14.05
2022-07-30T00:33:28.062Z,15.40
2022-07-30T00:35:56.694Z,12.27
2022-07-30T00:38:24.707Z,11.45
2022-07-30T00:40:54.263Z,10.98
2022-07-30T00:43:22.337Z,10.45
2022-07-30T00:45:50.209Z,10.65
2022-07-30T00:48:24.261Z,10.00
2022-07-30T00:50:52.253Z,10.88
2022-07-30T00:53:20.204Z,14.23
2022-07-30T00:55:48.168Z,10.45
2022-07-30T00:58:17.371Z,9.82
2022-07-30T01:00:45.394Z,10.30
2022-07-30T01:03:13.376Z,15.32
2022-07-30T01:05:41.356Z,10.55
2022-07-30T01:08:09.562Z,11.23
2022-07-30T01:10:37.595Z,10.50
2022-07-30T01:13:06.100Z,13.30
2022-07-30T01:15:35.703Z,10.95
2022-07-30T01:18:07.181Z,12.65
2022-07-30T01:20:38.730Z,13.85
2022-07-30T01:23:14.122Z,13.45
2022-07-30T01:25:57.767Z,12.73
2022-07-30T01:28:30.017Z,13.38
2022-07-30T01:30:59.737Z,10.75
2022-07-30T01:33:29.913Z,12.32
2022-07-30T01:36:01.059Z,10.82
2022-07-30T01:38:34.999Z,9.95
2022-07-30T01:41:07.014Z,12.40
2022-07-30T01:43:36.667Z,13.20
2022-07-30T01:46:05.870Z,11.18
2022-07-30T01:48:38.398Z,11.23
2022-07-30T01:51:07.700Z,12.23
2022-07-30T01:53:39.676Z,14.95
2022-07-30T01:56:11.422Z,13.35
2022-07-30T01:58:42.639Z,12.57
2022-07-30T02:01:30.805Z,18.45
2022-07-30T02:04:02.930Z,13.25
2022-07-30T02:06:35.729Z,12.45
2022-07-30T02:09:11.225Z,11.25
2022-07-30T02:12:02.186Z,14.98
2022-07-30T02:14:35.260Z,12.77
2022-07-30T02:17:05.489Z,11.57
2022-07-30T02:19:37.696Z,12.07
2022-07-30T02:22:14.021Z,12.50
2022-07-30T02:24:45.042Z,12.18
2022-07-30T02:27:17.840Z,10.95
2022-07-30T02:29:48.516Z,14.40
2022-07-30T02:32:21.738Z,14.13
2022-07-30T02:34:54.780Z,12.63
2022-07-30T02:37:41.120Z,14.27
2022-07-30T02:40:16.563Z,12.00
2022-07-30T02:42:48.330Z,15.38
2022-07-30T02:45:21.155Z,13.80
2022-07-30T02:47:53.705Z,19.48
2022-07-30T02:50:23.288Z,20.40
2022-07-30T02:52:52.883Z,12.60
2022-07-30T02:55:22.416Z,14.88
2022-07-30T02:57:54.343Z,13.40
2022-07-30T03:00:24.018Z,13.88
2022-07-30T03:02:56.730Z,13.50
2022-07-30T03:05:26.687Z,15.70
2022-07-30T03:07:57.432Z,12.70
2022-07-30T03:10:27.461Z,14.40
2022-07-30T03:12:57.659Z,18.45
2022-07-30T03:15:26.801Z,16.77
2022-07-30T03:17:55.713Z,18.08
2022-07-30T03:20:28.460Z,16.05
2022-07-30T03:23:00.450Z,19.05
2022-07-30T03:25:31.911Z,19.30
2022-07-30T03:28:03.907Z,19.40
2022-07-30T03:30:34.507Z,15.07
2022-07-30T03:33:04.683Z,17.75
2022-07-30T03:35:34.229Z,16.65
2022-07-30T03:38:03.275Z,16.40
2022-07-30T03:40:32.218Z,18.25
2022-07-30T03:43:02.293Z,23.73
2022-07-30T03:45:31.446Z,17.48
2022-07-30T03:48:08.153Z,17.45
2022-07-30T03:50:37.794Z,19.17
2022-07-30T03:53:06.975Z,19.35
2022-07-30T03:55:43.178Z,19.77
2022-07-30T03:58:35.867Z,21.13
2022-07-30T04:01:06.429Z,21.23
2022-07-30T04:03:35.192Z,22.58
2022-07-30T04:06:06.192Z,19.92
2022-07-30T04:08:34.303Z,23.13
2022-07-30T04:11:04.013Z,22.23
2022-07-30T04:13:48.245Z,24.83
2022-07-30T04:16:39.447Z,23.70
2022-07-30T04:19:17.779Z,26.88
2022-07-30T04:21:48.425Z,23.58
2022-07-30T04:24:19.202Z,27.17
2022-07-30T04:26:48.746Z,24.00
2022-07-30T04:29:24.126Z,22.17
2022-07-30T04:31:55.081Z,24.02
2022-07-30T04:34:57.329Z,25.55
2022-07-30T04:37:45.539Z,23.10
2022-07-30T04:40:14.167Z,26.00
2022-07-30T04:42:42.175Z,25.42
2022-07-30T04:45:14.248Z,28.15
2022-07-30T04:48:08.817Z,26.27
2022-07-30T04:50:42.108Z,23.65
2022-07-30T04:53:13.006Z,29.13
2022-07-30T04:55:48.631Z,27.70
2022-07-30T04:58:19.741Z,28.08
2022-07-30T05:00:51.845Z,26.80
2022-07-30T05:03:26.142Z,25.50
2022-07-30T05:05:57.729Z,27.00
2022-07-30T05:08:29.851Z,29.52
2022-07-30T05:11:01.372Z,26.52
2022-07-30T05:13:34.609Z,30.60
2022-07-30T05:16:09.067Z,26.23
2022-07-30T05:18:37.191Z,27.95
2022-07-30T05:21:06.261Z,24.92
2022-07-30T05:23:40.849Z,26.65
2022-07-30T05:26:27.652Z,24.58
2022-07-30T05:28:57.338Z,26.17
2022-07-30T05:31:41.567Z,26.88
2022-07-30T05:34:10.881Z,27.52
2022-07-30T05:36:45.476Z,27.02
2022-07-30T05:39:16.602Z,28.27
2022-07-30T05:41:53.454Z,25.70
2022-07-30T05:44:26.616Z,24.42
2022-07-30T05:46:55.949Z,28.58
2022-07-30T05:49:24.266Z,28.20
2022-07-30T05:51:54.599Z,27.40
2022-07-30T05:54:24.732Z,22.92
2022-07-30T05:57:07.850Z,25.63
2022-07-30T05:59:39.092Z,24.77
2022-07-30T06:02:11.401Z,23.08
2022-07-30T06:04:55.552Z,23.52
2022-07-30T06:07:24.679Z,22.02
2022-07-30T06:09:59.974Z,16.70
2022-07-30T06:12:29.542Z,24.17
2022-07-30T06:14:58.110Z,18.42
2022-07-30T06:17:44.933Z,18.38
2022-07-30T06:20:35.820Z,16.63
2022-07-30T06:23:14.127Z,18.02
2022-07-30T06:25:56.390Z,18.25
2022-07-30T06:28:40.041Z,20.08
2022-07-30T06:31:26.477Z,18.33
2022-07-30T06:33:56.415Z,19.08
2022-07-30T06:36:26.309Z,17.00
2022-07-30T06:39:01.948Z,22.00
2022-07-30T06:42:08.545Z,16.80
2022-07-30T06:45:02.185Z,18.85
2022-07-30T06:47:47.497Z,15.27
2022-07-30T06:50:19.071Z,19.67
2022-07-30T06:52:47.361Z,19.95
2022-07-30T06:55:15.602Z,13.75
2022-07-30T06:57:48.718Z,19.23
2022-07-30T07:00:36.961Z,15.25
2022-07-30T07:03:11.974Z,18.23
2022-07-30T07:05:41.854Z,14.75
2022-07-30T07:08:09.742Z,12.98
2022-07-30T07:10:42.722Z,15.85
2022-07-30T07:13:24.999Z,16.85
2022-07-30T07:15:53.443Z,13.75
2022-07-30T07:18:23.708Z,14.48
2022-07-30T07:20:57.679Z,13.52
2022-07-30T07:23:25.785Z,16.10
2022-07-30T07:26:12.697Z,14.35
2022-07-30T07:28:41.519Z,14.90
2022-07-30T07:31:10.264Z,14.70
2022-07-30T07:33:41.882Z,13.30
2022-07-30T07:36:12.647Z,12.82
2022-07-30T07:38:40.952Z,15.65
2022-07-30T07:41:09.214Z,14.85
2022-07-30T07:43:37.842Z,16.98
2022-07-30T07:46:06.108Z,16.23
2022-07-30T07:48:35.630Z,20.00
2022-07-30T07:51:47.821Z,16.70
2022-07-30T07:54:21.525Z,23.05
2022-07-30T07:56:52.990Z,24.27
2022-07-30T07:59:36.147Z,18.85
2022-07-30T08:02:12.970Z,19.13
2022-07-30T08:04:57.300Z,18.38
2022-07-30T08:07:46.459Z,19.38
2022-07-30T08:10:50.056Z,18.42
2022-07-30T08:13:48.597Z,24.00
2022-07-30T08:16:39.568Z,18.63
2022-07-30T08:19:43.068Z,19.60
2022-07-30T08:22:19.500Z,20.58
2022-07-30T08:24:48.980Z,18.48
2022-07-30T08:27:18.028Z,19.38
2022-07-30T08:29:46.214Z,18.77
2022-07-30T08:32:15.196Z,18.70
2022-07-30T08:34:44.440Z,21.75
2022-07-30T08:37:14.027Z,22.70
2022-07-30T08:39:42.737Z,18.65
2022-07-30T08:42:15.200Z,18.60
2022-07-30T08:44:45.580Z,19.00
2022-07-30T08:47:18.595Z,20.30
2022-07-30T08:50:16.700Z,19.75
2022-07-30T08:53:04.528Z,21.10
2022-07-30T08:55:33.315Z,17.50
2022-07-30T08:58:03.708Z,20.25
2022-07-30T09:00:31.911Z,20.38
2022-07-30T09:03:00.371Z,18.92
2022-07-30T09:05:28.825Z,16.83
2022-07-30T09:07:57.054Z,18.67
2022-07-30T09:10:26.673Z,18.85
2022-07-30T09:12:55.225Z,18.15
2022-07-30T09:15:25.760Z,20.17
2022-07-30T09:17:57.092Z,17.45
2022-07-30T09:20:29.534Z,19.00
2022-07-30T09:22:59.738Z,20.35
2022-07-30T09:25:41.565Z,17.23
2022-07-30T09:28:33.017Z,15.52
2022-07-30T09:31:15.531Z,17.75
2022-07-30T09:34:26.235Z,16.50
2022-07-30T09:37:18.988Z,18.58
2022-07-30T09:40:12.807Z,18.20
2022-07-30T09:43:29.554Z,17.42
2022-07-30T09:46:10.292Z,16.20
2022-07-30T09:48:40.692Z,22.92
2022-07-30T09:51:15.603Z,21.40
2022-07-30T09:53:59.214Z,18.42
2022-07-30T09:56:30.831Z,17.63
2022-07-30T09:59:01.081Z,17.48
2022-07-30T10:01:49.940Z,17.52
2022-07-30T10:04:37.394Z,13.98
2022-07-30T10:07:25.382Z,15.15
2022-07-30T10:10:01.452Z,16.40
2022-07-30T10:12:33.717Z,18.77
2022-07-30T10:15:06.192Z,14.15
2022-07-30T10:17:38.553Z,13.23
2022-07-30T10:20:24.227Z,15.13
2022-07-30T10:23:15.766Z,15.40
2022-07-30T10:26:04.697Z,13.70
2022-07-30T10:28:55.005Z,13.43
2022-07-30T10:31:47.396Z,12.52
2022-07-30T10:34:14.812Z,10.90
2022-07-30T10:36:47.311Z,10.73
2022-07-30T10:39:22.756Z,9.93
2022-07-30T10:42:07.466Z,10.77
2022-07-30T10:45:17.948Z,10.10
2022-07-30T10:47:48.876Z,8.38
2022-07-30T10:50:22.502Z,7.55
2022-07-30T10:52:54.118Z,9.05
2022-07-30T10:55:32.919Z,8.90
2022-07-30T10:58:07.819Z,7.72
2022-07-30T11:00:38.567Z,6.55
2022-07-30T11:03:19.200Z,8.55
2022-07-30T11:05:49.617Z,7.82
2022-07-30T11:08:37.014Z,6.35
2022-07-30T11:11:19.571Z,7.72
2022-07-30T11:13:55.100Z,6.85
2022-07-30T11:16:25.011Z,4.70
2022-07-30T11:22:26.157Z,5.22
2022-07-30T11:24:56.613Z,4.03
2022-07-30T11:27:36.691Z,4.38
2022-07-30T11:30:08.384Z,4.18
2022-07-30T11:32:37.416Z,5.85
2022-07-30T11:35:18.094Z,6.57
2022-07-30T11:38:04.293Z,7.38
2022-07-30T11:40:35.154Z,7.88
2022-07-30T11:43:34.753Z,10.45
2022-07-30T11:46:10.534Z,10.45
2022-07-30T11:48:40.652Z,12.43
2022-07-30T11:51:09.855Z,14.60
2022-07-30T11:53:38.576Z,11.80
2022-07-30T11:56:09.514Z,13.02
2022-07-30T11:58:42.511Z,14.88
2022-07-30T12:01:14.373Z,14.88
2022-07-30T12:03:44.313Z,14.25
2022-07-30T12:06:18.301Z,14.27
2022-07-30T12:08:48.437Z,15.43
2022-07-30T12:11:18.079Z,15.52
2022-07-30T12:13:57.146Z,25.17
2022-07-30T12:16:25.134Z,20.25
2022-07-30T12:18:54.135Z,23.45
2022-07-30T12:21:22.551Z,22.27
2022-07-30T12:23:58.065Z,25.10
2022-07-30T12:26:30.029Z,27.42
2022-07-30T12:28:59.622Z,27.45
2022-07-30T12:31:29.009Z,28.63
2022-07-30T12:33:59.312Z,30.02
2022-07-30T12:36:30.964Z,26.92
2022-07-30T12:38:59.953Z,24.75
2022-07-30T12:41:54.144Z,24.15
2022-07-30T12:44:39.108Z,25.85
2022-07-30T12:47:18.882Z,32.20
2022-07-30T12:49:49.879Z,31.02
2022-07-30T12:52:28.699Z,26.73
2022-07-30T12:54:59.131Z,25.45
2022-07-30T12:57:28.846Z,28.38
2022-07-30T13:00:05.942Z,30.88
2022-07-30T13:02:34.766Z,28.77
2022-07-30T13:05:10.884Z,28.25
2022-07-30T13:07:54.308Z,28.23
2022-07-30T13:10:25.028Z,36.45
2022-07-30T13:12:58.485Z,28.30
2022-07-30T13:15:27.174Z,36.17
2022-07-30T13:17:55.255Z,55.83
2022-07-30T13:20:23.770Z,29.77
2022-07-30T13:22:51.776Z,26.38
2022-07-30T13:25:19.827Z,26.60
2022-07-30T13:27:48.564Z,28.48
2022-07-30T13:30:18.217Z,25.95
2022-07-30T13:32:46.881Z,28.65
2022-07-30T13:35:16.037Z,24.13
2022-07-30T13:37:44.107Z,24.58
2022-07-30T13:40:12.545Z,126.03
2022-07-30T13:42:40.651Z,32.95
2022-07-30T13:45:10.074Z,19.60
2022-07-30T13:47:39.516Z,18.27
2022-07-30T13:50:08.186Z,16.73
2022-07-30T13:52:36.158Z,14.95
2022-07-30T13:55:04.312Z,15.38
2022-07-30T13:57:32.287Z,16.48
2022-07-30T14:00:00.345Z,15.70
2022-07-30T14:02:32.809Z,14.70
2022-07-30T14:05:06.962Z,13.02
2022-07-30T14:07:35.276Z,13.50
2022-07-30T14:10:03.881Z,14.73
2022-07-30T14:12:31.997Z,13.55
2022-07-30T14:15:00.047Z,14.07
2022-07-30T14:17:28.404Z,12.85
2022-07-30T14:19:56.576Z,10.85
2022-07-30T14:22:26.053Z,12.15
2022-07-30T14:24:54.098Z,11.85
2022-07-30T14:27:22.083Z,11.02
2022-07-30T14:29:50.493Z,12.57
2022-07-30T14:32:19.296Z,11.27
2022-07-30T14:34:49.504Z,12.75
2022-07-30T14:37:17.821Z,13.50
2022-07-30T14:39:47.140Z,14.07
2022-07-30T14:42:15.107Z,15.75
2022-07-30T14:44:43.223Z,10.55
2022-07-30T14:47:11.277Z,11.35
2022-07-30T14:49:39.513Z,13.23
2022-07-30T14:52:08.064Z,16.85
2022-07-30T14:54:36.125Z,12.95
2022-07-30T14:57:08.609Z,13.40
2022-07-30T14:59:37.030Z,16.38
2022-07-30T15:02:05.881Z,13.93
2022-07-30T15:04:38.725Z,13.38
2022-07-30T15:07:06.854Z,15.13
2022-07-30T15:09:35.040Z,14.50
2022-07-30T15:12:08.989Z,14.95
2022-07-30T15:14:40.296Z,14.63
2022-07-30T15:17:09.404Z,17.20
2022-07-30T15:19:37.460Z,16.13
2022-07-30T15:22:18.268Z,14.60
2022-07-30T15:24:46.273Z,15.63
2022-07-30T15:27:14.313Z,17.52
2022-07-30T15:29:44.533Z,18.60
2022-07-30T15:32:13.653Z,16.08
2022-07-30T15:34:42.372Z,17.50
2022-07-30T15:37:10.399Z,16.17
2022-07-30T15:39:38.400Z,15.70
2022-07-30T15:42:06.992Z,13.18
2022-07-30T15:44:35.554Z,15.20
2022-07-30T15:47:05.165Z,14.65
2022-07-30T15:49:33.284Z,14.73
2022-07-30T15:52:02.030Z,15.32
2022-07-30T15:54:30.459Z,12.60
2022-07-30T15:57:01.052Z,16.10
2022-07-30T15:59:30.419Z,13.45
2022-07-30T16:01:58.456Z,13.00
2022-07-30T16:04:31.275Z,12.27
2022-07-30T16:07:01.065Z,13.27
2022-07-30T16:09:29.517Z,12.13
2022-07-30T16:11:58.139Z,18.55
2022-07-30T16:14:27.386Z,11.95
2022-07-30T16:16:55.463Z,19.23
2022-07-30T16:19:23.506Z,12.68
2022-07-30T16:21:53.354Z,13.00
2022-07-30T16:24:21.795Z,13.63
2022-07-30T16:26:50.729Z,17.30
2022-07-30T16:29:18.994Z,13.20
2022-07-30T16:31:48.406Z,14.68
2022-07-30T16:34:17.795Z,11.73
2022-07-30T16:36:56.515Z,11.18
2022-07-30T16:39:24.450Z,11.35
2022-07-30T16:41:52.849Z,11.18
2022-07-30T16:44:20.861Z,15.55
2022-07-30T16:46:49.241Z,13.93
2022-07-30T16:49:17.322Z,16.38
2022-07-30T16:51:45.622Z,17.63
2022-07-30T16:54:14.984Z,15.38
2022-07-30T16:56:43.495Z,16.27
2022-07-30T16:59:13.780Z,16.77
2022-07-30T17:01:42.140Z,17.70
2022-07-30T17:04:10.080Z,16.80
2022-07-30T17:06:39.983Z,17.52
2022-07-30T17:09:08.669Z,17.90
2022-07-30T17:11:47.480Z,18.17
2022-07-30T17:14:22.196Z,18.75
2022-07-30T17:16:50.672Z,17.38
2022-07-30T17:19:18.705Z,16.92
2022-07-30T17:21:46.728Z,15.63
2022-07-30T17:24:14.732Z,14.88
2022-07-30T17:26:44.377Z,14.10
2022-07-30T17:29:14.715Z,16.67
2022-07-30T17:31:44.614Z,14.30
2022-07-30T17:34:15.914Z,13.95
2022-07-30T17:36:51.697Z,13.00
2022-07-30T17:40:27.311Z,14.98
2022-07-30T17:42:12.240Z,19.23
2022-07-30T17:44:41.149Z,17.45
2022-07-30T17:47:14.570Z,19.08
2022-07-30T17:49:44.687Z,18.90
2022-07-30T17:52:12.742Z,18.17
2022-07-30T17:54:40.761Z,18.83
2022-07-30T17:57:09.205Z,15.15
2022-07-30T17:59:38.931Z,13.35
2022-07-30T18:02:07.291Z,17.10
2022-07-30T18:04:36.030Z,13.60
2022-07-30T18:07:05.031Z,15.13
2022-07-30T18:09:36.187Z,12.15
2022-07-30T18:12:08.349Z,11.05
2022-07-30T18:14:36.556Z,13.20
2022-07-30T18:17:08.210Z,10.57
2022-07-30T18:19:39.443Z,14.30
2022-07-30T18:22:09.338Z,13.00
2022-07-30T18:24:40.215Z,14.25
2022-07-30T18:27:08.842Z,13.88
2022-07-30T18:29:36.836Z,10.02
2022-07-30T18:32:07.579Z,11.20
2022-07-30T18:34:36.395Z,13.10
2022-07-30T18:37:04.679Z,16.75
2022-07-30T18:39:32.714Z,10.77
2022-07-30T18:42:00.991Z,13.10
2022-07-30T18:44:29.351Z,12.68
2022-07-30T18:46:57.284Z,9.48
2022-07-30T18:49:36.505Z,13.02
2022-07-30T18:52:06.130Z,9.93
2022-07-30T18:54:34.597Z,11.60
2022-07-30T18:57:02.967Z,8.85
2022-07-30T18:59:31.054Z,9.93
2022-07-30T19:02:00.306Z,11.50
2022-07-30T19:04:31.060Z,13.05
2022-07-30T19:06:59.075Z,12.88
2022-07-30T19:09:27.341Z,12.88
2022-07-30T19:11:55.777Z,9.80
2022-07-30T19:14:23.703Z,10.90
2022-07-30T19:16:52.451Z,11.35
2022-07-30T19:19:20.762Z,9.88
2022-07-30T19:21:49.969Z,10.75
2022-07-30T19:24:17.829Z,10.45
2022-07-30T19:26:45.940Z,9.73
2022-07-30T19:29:13.851Z,10.82
2022-07-30T19:31:42.525Z,13.13
2022-07-30T19:34:11.765Z,9.65
2022-07-30T19:36:39.868Z,10.15
2022-07-30T19:39:12.154Z,9.30
2022-07-30T19:41:44.049Z,9.55
2022-07-30T19:44:13.652Z,9.48
2022-07-30T19:46:47.179Z,15.13
2022-07-30T19:49:17.380Z,8.93
2022-07-30T19:52:16.898Z,10.23
2022-07-30T19:54:36.950Z,13.57
2022-07-30T19:57:05.300Z,9.73
2022-07-30T19:59:59.344Z,7.68
2022-07-30T20:02:22.461Z,8.57
2022-07-30T20:04:50.665Z,10.25
2022-07-30T20:07:19.227Z,8.55
2022-07-30T20:09:49.187Z,8.63
2022-07-30T20:12:17.227Z,10.30
2022-07-30T20:14:45.125Z,10.30
2022-07-30T20:17:13.426Z,9.55
2022-07-30T20:19:47.597Z,12.45
2022-07-30T20:22:17.083Z,9.52
2022-07-30T20:24:45.329Z,10.57
2022-07-30T20:27:36.449Z,13.77
2022-07-30T20:30:02.726Z,10.68
2022-07-30T20:32:31.144Z,8.00
2022-07-30T20:35:00.416Z,9.63
2022-07-30T20:37:28.968Z,8.15
2022-07-30T20:39:57.283Z,9.23
2022-07-30T20:42:26.730Z,7.35
2022-07-30T20:44:56.909Z,8.50
2022-07-30T20:47:34.680Z,7.10
2022-07-30T20:50:09.632Z,8.80
2022-07-30T20:52:39.219Z,8.00
2022-07-30T20:55:08.393Z,15.73
2022-07-30T20:57:56.313Z,8.60
2022-07-30T21:00:27.105Z,8.40
2022-07-30T21:02:54.981Z,15.27
2022-07-30T21:05:23.356Z,11.95
2022-07-30T21:07:56.452Z,12.32
2022-07-30T21:10:26.090Z,8.50
2022-07-30T21:12:58.646Z,11.52
2022-07-30T21:15:32.921Z,9.75
2022-07-30T21:18:01.805Z,9.68
2022-07-30T21:20:30.140Z,9.23
2022-07-30T21:23:04.595Z,10.25
2022-07-30T21:25:33.480Z,8.45
2022-07-30T21:28:03.307Z,9.27
2022-07-30T21:30:33.016Z,11.45
2022-07-30T21:33:02.048Z,8.02
2022-07-30T21:35:31.934Z,10.27
2022-07-30T21:38:00.286Z,7.95
2022-07-30T21:40:29.442Z,7.95
2022-07-30T21:42:57.811Z,8.48
2022-07-30T21:45:38.144Z,15.15
2022-07-30T21:48:10.768Z,10.95
2022-07-30T21:50:39.952Z,10.23
2022-07-30T21:53:08.155Z,11.57
2022-07-30T21:55:52.802Z,12.07
2022-07-30T21:58:26.286Z,6.97
2022-07-30T22:01:17.217Z,9.68
2022-07-30T22:06:35.487Z,12.05
2022-07-30T22:09:08.549Z,11.77
2022-07-30T22:11:47.178Z,8.85
2022-07-30T22:14:15.764Z,8.23
2022-07-30T22:16:46.388Z,8.07
2022-07-30T22:19:15.228Z,6.55
2022-07-30T22:21:46.600Z,7.53
2022-07-30T22:24:31.424Z,8.15
2022-07-30T22:27:01.658Z,11.25
2022-07-30T22:29:38.270Z,8.57
2022-07-30T22:32:08.919Z,12.40
2022-07-30T22:34:37.876Z,8.35
2022-07-30T22:37:09.149Z,7.05
2022-07-30T22:39:50.772Z,6.35
2022-07-30T22:42:20.987Z,13.13
2022-07-30T22:44:54.678Z,9.80
2022-07-30T22:47:54.072Z,7.28
2022-07-30T22:50:14.802Z,15.35
2022-07-30T22:55:33.896Z,14.88
2022-07-30T22:58:01.795Z,6.10
2022-07-30T23:00:29.725Z,8.45
2022-07-30T23:02:58.988Z,7.32
2022-07-30T23:05:27.517Z,14.43
2022-07-30T23:07:55.483Z,8.73
2022-07-30T23:10:25.755Z,6.88
2022-07-30T23:12:30.688Z,7.93
2022-07-30T23:12:31.756Z,10.40
2022-07-30T23:12:56.412Z,9.05
2022-07-30T23:15:24.589Z,7.82
2022-07-30T23:17:53.140Z,11.40
2022-07-30T23:20:22.962Z,9.77
2022-07-30T23:22:51.322Z,13.25
2022-07-30T23:25:19.182Z,15.40
2022-07-30T23:27:47.488Z,6.63
2022-07-30T23:30:15.657Z,8.43
2022-07-30T23:32:43.895Z,18.05
2022-07-30T23:35:12.760Z,7.47
2022-07-30T23:37:48.732Z,15.52
2022-07-30T23:40:18.370Z,9.27
2022-07-30T23:42:46.312Z,8.75
2022-07-30T23:45:14.229Z,12.70
2022-07-30T23:48:00.994Z,16.10
2022-07-30T23:50:30.508Z,15.10
2022-07-30T23:53:00.123Z,17.00
2022-07-30T23:55:28.117Z,17.30
2022-07-30T23:57:56.041Z,17.90
